Time;durP1;ratioP1;P1;durP2;ratioP2;P2;SDS_P1;SDS_P2;PMS_P1;PMS_P2;Temp;Humidity;BMP_temperature;BMP_pressure;BME280_temperature;BME280_humidity;BME280_pressure;Samples;Min_cycle;Max_cycle;Signal;HPM_P1;HPM_P2
2023/06/17 00:02:15;;;;;;;23.48;15.45;;;17.90;99.90;;;;;;5091735;28;20205;-79
2023/06/17 00:04:41;;;;;;;27.40;16.98;;;18.00;99.90;;;;;;5093030;28;20629;-78
2023/06/17 00:07:07;;;;;;;25.17;17.20;;;17.90;99.90;;;;;;5092407;27;20637;-79
2023/06/17 00:09:33;;;;;;;29.92;17.33;;;17.90;99.90;;;;;;5116584;27;20193;-80
2023/06/17 00:12:02;;;;;;;27.90;17.17;;;17.90;99.90;;;;;;5108444;28;20189;-78
2023/06/17 00:14:28;;;;;;;34.28;17.92;;;17.90;99.90;;;;;;5099540;28;20222;-78
2023/06/17 00:16:54;;;;;;;27.63;17.73;;;17.90;99.90;;;;;;5112876;28;20173;-78
2023/06/17 00:19:20;;;;;;;31.90;17.45;;;17.80;99.90;;;;;;5113103;28;20192;-78
2023/06/17 00:21:52;;;;;;;28.92;17.48;;;17.80;99.90;;;;;;5094477;28;20214;-78
2023/06/17 00:24:21;;;;;;;29.52;16.75;;;17.80;99.90;;;;;;5092702;28;20235;-78
2023/06/17 00:26:48;;;;;;;30.20;17.83;;;17.80;99.90;;;;;;5094504;28;20177;-78
2023/06/17 00:29:15;;;;;;;28.50;17.55;;;17.80;99.90;;;;;;5103930;27;20186;-76
2023/06/17 00:31:41;;;;;;;28.40;17.33;;;17.80;99.90;;;;;;5098890;28;20713;-78
2023/06/17 00:34:07;;;;;;;30.48;17.20;;;17.80;99.90;;;;;;5099526;28;20201;-78
2023/06/17 00:36:32;;;;;;;31.67;17.35;;;17.80;99.90;;;;;;5110668;28;20653;-78
2023/06/17 00:38:58;;;;;;;29.67;17.67;;;17.80;99.90;;;;;;5110380;28;20189;-79
2023/06/17 00:41:24;;;;;;;33.25;17.88;;;17.80;99.90;;;;;;5097470;28;20186;-79
2023/06/17 00:43:50;;;;;;;31.73;17.67;;;17.80;99.90;;;;;;5109370;28;20189;-77
2023/06/17 00:46:38;;;;;;;26.02;17.33;;;17.80;99.90;;;;;;5112421;27;20185;-78
2023/06/17 00:49:06;;;;;;;29.85;17.30;;;17.80;99.90;;;;;;5092670;27;20198;-78
2023/06/17 00:51:33;;;;;;;32.92;17.98;;;17.80;99.90;;;;;;5102898;28;20205;-78
2023/06/17 00:54:00;;;;;;;29.55;17.65;;;17.80;99.90;;;;;;5074078;28;20282;-80
2023/06/17 00:56:31;;;;;;;30.10;17.92;;;17.80;99.90;;;;;;5092317;27;20182;-79
2023/06/17 00:58:57;;;;;;;31.08;17.10;;;17.80;99.90;;;;;;5092974;28;20162;-79
2023/06/17 01:01:24;;;;;;;31.98;17.52;;;17.80;99.90;;;;;;5095554;28;20182;-79
2023/06/17 01:03:54;;;;;;;30.75;17.73;;;17.80;99.90;;;;;;5090329;28;20178;-79
2023/06/17 01:06:33;;;;;;;27.67;16.98;;;17.80;99.90;;;;;;5085560;28;20189;-79
2023/06/17 01:09:11;;;;;;;30.30;16.85;;;17.80;99.90;;;;;;5091665;28;20624;-79
2023/06/17 01:11:39;;;;;;;37.65;18.35;;;17.80;99.90;;;;;;5094775;27;20227;-77
2023/06/17 01:14:08;;;;;;;29.27;16.50;;;17.80;99.90;;;;;;5110952;28;20233;-77
2023/06/17 01:16:40;;;;;;;29.65;17.20;;;17.80;99.90;;;;;;5087215;28;20578;-80
2023/06/17 01:19:18;;;;;;;29.98;15.57;;;17.80;99.90;;;;;;5090849;28;20189;-79
2023/06/17 01:21:51;;;;;;;26.05;15.27;;;17.80;99.90;;;;;;5090633;28;20276;-79
2023/06/17 01:24:30;;;;;;;25.35;15.52;;;17.80;99.90;;;;;;5092007;28;20266;-79
2023/06/17 01:26:59;;;;;;;33.08;16.17;;;17.80;99.90;;;;;;5108587;28;20697;-80
2023/06/17 01:29:29;;;;;;;33.25;16.15;;;17.80;99.90;;;;;;5103883;28;20582;-78
2023/06/17 01:31:57;;;;;;;30.92;16.80;;;17.70;99.90;;;;;;5090090;28;20650;-79
2023/06/17 01:34:46;;;;;;;31.02;16.52;;;17.70;99.90;;;;;;5102394;28;20208;-79
2023/06/17 01:37:14;;;;;;;27.83;15.65;;;17.60;99.90;;;;;;5089892;28;20233;-85
2023/06/17 01:39:44;;;;;;;29.60;15.57;;;17.60;99.90;;;;;;5092660;28;20254;-83
2023/06/17 01:42:16;;;;;;;27.73;15.77;;;17.60;99.90;;;;;;5098341;28;20196;-79
2023/06/17 01:44:42;;;;;;;32.13;16.05;;;17.60;99.90;;;;;;5103952;28;20587;-79
2023/06/17 01:47:09;;;;;;;32.92;16.23;;;17.60;99.90;;;;;;5091863;28;20265;-78
2023/06/17 01:49:37;;;;;;;28.48;17.10;;;17.60;99.90;;;;;;5089093;28;20273;-79
2023/06/17 01:52:04;;;;;;;30.23;17.08;;;17.60;99.90;;;;;;5074036;28;20207;-79
2023/06/17 01:54:30;;;;;;;31.98;17.13;;;17.60;99.90;;;;;;5108852;28;20253;-79
2023/06/17 01:56:56;;;;;;;33.15;18.73;;;17.60;99.90;;;;;;5108305;28;20204;-79
2023/06/17 01:59:22;;;;;;;28.35;18.70;;;17.50;99.90;;;;;;5110504;28;20173;-79
2023/06/17 02:01:48;;;;;;;33.10;18.80;;;17.50;99.90;;;;;;5106473;28;20202;-79
2023/06/17 02:04:14;;;;;;;26.95;18.35;;;17.40;99.90;;;;;;5077351;28;20234;-80
2023/06/17 02:06:39;;;;;;;32.15;18.65;;;17.40;99.90;;;;;;5090866;28;20190;-79
2023/06/17 02:09:06;;;;;;;29.90;17.75;;;17.40;99.90;;;;;;5072839;28;20193;-79
2023/06/17 02:11:32;;;;;;;32.55;19.73;;;17.40;99.90;;;;;;5104936;28;20264;-81
2023/06/17 02:13:58;;;;;;;28.92;18.25;;;17.40;99.90;;;;;;5092880;28;20329;-79
2023/06/17 02:16:23;;;;;;;30.63;18.75;;;17.40;99.90;;;;;;5102784;28;20185;-79
2023/06/17 02:18:54;;;;;;;28.77;17.90;;;17.40;99.90;;;;;;5103535;28;20629;-78
2023/06/17 02:21:20;;;;;;;29.92;18.92;;;17.30;99.90;;;;;;5092293;28;20647;-79
2023/06/17 02:23:48;;;;;;;31.75;18.90;;;17.30;99.90;;;;;;5108453;28;20641;-79
2023/06/17 02:26:16;;;;;;;29.77;19.23;;;17.30;99.90;;;;;;5095746;28;20183;-79
2023/06/17 02:28:42;;;;;;;27.80;18.40;;;17.30;99.90;;;;;;5093663;28;20182;-78
2023/06/17 02:31:09;;;;;;;35.08;20.15;;;17.30;99.90;;;;;;5106565;28;20181;-81
2023/06/17 02:33:35;;;;;;;31.70;19.25;;;17.40;99.90;;;;;;5114197;28;20240;-78
2023/06/17 02:36:02;;;;;;;33.15;18.65;;;17.30;99.90;;;;;;5107949;27;20225;-78
2023/06/17 02:38:28;;;;;;;26.17;19.10;;;17.30;99.90;;;;;;5094805;28;20186;-78
2023/06/17 02:40:54;;;;;;;40.40;19.92;;;17.30;99.90;;;;;;5085069;28;20645;-79
2023/06/17 02:43:20;;;;;;;29.65;19.85;;;17.30;99.90;;;;;;5095301;28;20192;-78
2023/06/17 02:45:46;;;;;;;32.67;21.15;;;17.30;99.90;;;;;;5093574;28;20755;-78
2023/06/17 02:48:12;;;;;;;27.48;20.38;;;17.30;99.90;;;;;;5094956;28;20189;-78
2023/06/17 02:50:38;;;;;;;33.42;20.00;;;17.30;99.90;;;;;;5094524;28;20186;-78
2023/06/17 02:53:04;;;;;;;30.55;20.00;;;17.30;99.90;;;;;;5093664;28;20323;-79
2023/06/17 02:55:30;;;;;;;28.35;19.92;;;17.30;99.90;;;;;;5094320;28;20315;-78
2023/06/17 02:58:00;;;;;;;32.53;21.08;;;17.30;99.90;;;;;;5078110;28;20185;-79
2023/06/17 03:00:32;;;;;;;31.20;21.25;;;17.30;99.90;;;;;;5093407;28;20214;-79
2023/06/17 03:02:58;;;;;;;34.65;22.17;;;17.20;99.90;;;;;;5076512;28;20526;-79
2023/06/17 03:05:24;;;;;;;38.97;22.00;;;17.10;99.90;;;;;;5076389;28;20180;-79
2023/06/17 03:07:50;;;;;;;35.85;22.35;;;17.10;99.90;;;;;;5094019;28;20178;-79
2023/06/17 03:10:17;;;;;;;35.28;23.13;;;17.10;99.90;;;;;;5100784;27;20189;-79
2023/06/17 03:12:48;;;;;;;36.95;22.83;;;17.10;99.90;;;;;;5113577;28;20649;-79
2023/06/17 03:15:17;;;;;;;31.65;22.75;;;17.20;99.90;;;;;;5109887;28;20228;-79
2023/06/17 03:17:43;;;;;;;38.70;24.20;;;17.20;99.90;;;;;;5113163;28;20268;-80
2023/06/17 03:20:09;;;;;;;37.15;24.02;;;17.20;99.90;;;;;;5110220;28;20185;-80
2023/06/17 03:22:35;;;;;;;37.33;22.70;;;17.10;99.90;;;;;;5113726;28;20265;-79
2023/06/17 03:25:02;;;;;;;35.25;23.33;;;17.20;99.90;;;;;;5111307;27;20229;-79
2023/06/17 03:27:29;;;;;;;35.05;23.02;;;17.10;99.90;;;;;;5096219;28;20177;-79
2023/06/17 03:29:56;;;;;;;38.38;24.85;;;17.10;99.90;;;;;;5111463;28;20254;-79
2023/06/17 03:32:22;;;;;;;38.80;25.45;;;17.10;99.90;;;;;;5094428;28;20637;-79
2023/06/17 03:34:49;;;;;;;38.97;26.10;;;17.10;99.90;;;;;;5091354;28;20209;-82
2023/06/17 03:37:15;;;;;;;47.33;26.70;;;17.10;99.90;;;;;;5096211;28;20256;-79
2023/06/17 03:39:43;;;;;;;46.67;26.52;;;17.10;99.90;;;;;;5112474;28;20273;-79
2023/06/17 03:42:10;;;;;;;38.60;27.17;;;17.10;99.90;;;;;;5094375;27;20235;-79
2023/06/17 03:44:36;;;;;;;37.50;25.70;;;17.10;99.90;;;;;;5075507;28;20192;-79
2023/06/17 03:47:02;;;;;;;41.25;26.48;;;17.10;99.90;;;;;;5094666;28;20178;-78
2023/06/17 03:49:29;;;;;;;32.55;23.83;;;17.00;99.90;;;;;;5092615;28;20533;-79
2023/06/17 03:51:55;;;;;;;36.97;26.00;;;17.10;99.90;;;;;;5092146;28;20664;-79
2023/06/17 03:54:21;;;;;;;39.40;25.83;;;17.00;99.90;;;;;;5109044;28;20340;-79
2023/06/17 03:56:47;;;;;;;41.67;25.23;;;17.00;99.90;;;;;;5105706;27;20630;-78
2023/06/17 03:59:15;;;;;;;34.78;24.08;;;17.00;99.90;;;;;;5100331;28;20174;-79
2023/06/17 04:01:41;;;;;;;38.65;24.42;;;17.00;99.90;;;;;;5106884;28;20180;-78
2023/06/17 04:04:08;;;;;;;35.05;23.23;;;17.00;99.90;;;;;;5095553;28;20238;-79
2023/06/17 04:06:35;;;;;;;37.70;22.45;;;17.00;99.90;;;;;;5081251;28;20273;-80
2023/06/17 04:09:02;;;;;;;32.78;21.63;;;17.00;99.90;;;;;;5091551;28;20276;-77
2023/06/17 04:11:30;;;;;;;34.30;22.30;;;17.00;99.90;;;;;;5108145;28;20632;-79
2023/06/17 04:13:56;;;;;;;39.45;23.38;;;17.00;99.90;;;;;;5111921;28;20716;-80
2023/06/17 04:16:23;;;;;;;35.53;22.58;;;17.00;99.90;;;;;;5091924;28;20224;-78
2023/06/17 04:18:49;;;;;;;38.45;22.02;;;17.00;99.90;;;;;;5093312;28;20177;-78
2023/06/17 04:21:14;;;;;;;35.72;21.13;;;17.00;99.90;;;;;;5084054;28;20193;-78
2023/06/17 04:23:40;;;;;;;36.08;22.35;;;17.00;99.90;;;;;;5095963;28;20260;-78
2023/06/17 04:26:07;;;;;;;32.00;21.70;;;17.10;99.90;;;;;;5101686;27;20193;-78
2023/06/17 04:28:34;;;;;;;32.40;22.05;;;17.10;99.90;;;;;;5091884;27;20296;-79
2023/06/17 04:31:01;;;;;;;36.35;21.63;;;17.00;99.90;;;;;;5104501;28;20647;-82
2023/06/17 04:33:30;;;;;;;33.83;21.88;;;17.00;99.90;;;;;;5092623;28;20218;-79
2023/06/17 04:35:58;;;;;;;36.00;22.48;;;17.00;99.90;;;;;;5102416;28;20182;-79
2023/06/17 04:38:24;;;;;;;38.47;21.77;;;17.00;99.90;;;;;;5091040;28;20185;-80
2023/06/17 04:40:52;;;;;;;30.63;21.25;;;17.00;99.90;;;;;;5099470;28;20173;-80
2023/06/17 04:43:22;;;;;;;33.42;21.75;;;17.00;99.90;;;;;;5109807;28;20581;-80
2023/06/17 04:45:49;;;;;;;28.00;19.55;;;17.10;99.90;;;;;;5110730;28;20185;-80
2023/06/17 04:48:15;;;;;;;35.15;20.63;;;17.00;99.90;;;;;;5112607;28;20181;-80
2023/06/17 04:50:43;;;;;;;30.70;20.73;;;17.00;99.90;;;;;;5104441;28;20200;-81
2023/06/17 04:53:10;;;;;;;29.40;20.60;;;16.90;99.90;;;;;;5107654;28;20213;-80
2023/06/17 04:55:37;;;;;;;33.08;21.13;;;16.90;99.90;;;;;;5096783;28;20193;-81
2023/06/17 04:58:05;;;;;;;33.47;20.98;;;16.90;99.90;;;;;;5079645;28;20178;-81
2023/06/17 05:00:38;;;;;;;29.00;21.13;;;16.90;99.90;;;;;;5072416;28;20205;-81
2023/06/17 05:03:05;;;;;;;34.65;22.30;;;16.90;99.90;;;;;;5109110;28;20177;-81
2023/06/17 05:05:31;;;;;;;36.40;22.65;;;17.00;99.90;;;;;;5073402;28;20230;-82
2023/06/17 05:07:56;;;;;;;39.75;22.30;;;17.00;99.90;;;;;;5084508;28;20582;-82
2023/06/17 05:10:22;;;;;;;36.35;23.02;;;17.00;99.90;;;;;;5076707;28;20188;-80
2023/06/17 05:12:48;;;;;;;36.45;22.95;;;17.00;99.90;;;;;;5093825;28;20231;-81
2023/06/17 05:15:14;;;;;;;34.85;23.48;;;17.00;99.90;;;;;;5100692;28;20264;-81
2023/06/17 05:17:40;;;;;;;34.45;23.33;;;16.90;99.90;;;;;;5110785;28;20181;-81
2023/06/17 05:20:07;;;;;;;36.13;25.15;;;16.90;99.90;;;;;;5095374;28;20178;-83
2023/06/17 05:22:34;;;;;;;35.22;23.95;;;16.90;99.90;;;;;;5106234;28;20182;-82
2023/06/17 05:25:00;;;;;;;39.88;24.13;;;16.80;99.90;;;;;;5090356;28;20626;-81
2023/06/17 05:27:28;;;;;;;40.13;24.40;;;16.80;99.90;;;;;;5100117;28;20181;-84
2023/06/17 05:29:54;;;;;;;39.70;23.98;;;16.80;99.90;;;;;;5094977;28;20277;-82
2023/06/17 05:32:22;;;;;;;38.75;25.90;;;16.80;99.90;;;;;;5102345;28;20216;-81
2023/06/17 05:34:49;;;;;;;37.42;25.92;;;16.90;99.90;;;;;;5110245;28;20185;-81
2023/06/17 05:37:15;;;;;;;36.75;26.58;;;16.90;99.90;;;;;;5095530;27;20566;-82
2023/06/17 05:39:41;;;;;;;43.00;27.38;;;16.90;99.90;;;;;;5078227;28;20644;-80
2023/06/17 05:42:07;;;;;;;35.72;26.25;;;16.90;99.90;;;;;;5104108;28;20191;-81
2023/06/17 05:44:32;;;;;;;40.42;25.15;;;17.00;99.90;;;;;;5090211;28;20191;-80
2023/06/17 05:46:58;;;;;;;35.70;22.95;;;17.00;99.90;;;;;;5090296;28;20265;-81
2023/06/17 05:49:24;;;;;;;36.33;21.75;;;17.00;99.90;;;;;;5092126;28;20190;-81
2023/06/17 05:51:50;;;;;;;29.83;20.52;;;17.00;99.90;;;;;;5091495;28;20162;-80
2023/06/17 05:54:16;;;;;;;33.83;19.80;;;17.00;99.90;;;;;;5089690;28;20217;-82
2023/06/17 05:56:42;;;;;;;31.13;20.05;;;17.00;99.90;;;;;;5090233;28;20238;-82
2023/06/17 05:59:08;;;;;;;29.73;20.50;;;17.00;99.90;;;;;;5089656;28;20618;-81
2023/06/17 06:01:37;;;;;;;36.25;20.17;;;17.10;99.90;;;;;;5090214;28;20198;-81
2023/06/17 06:04:03;;;;;;;30.10;18.50;;;17.10;99.90;;;;;;5099722;28;20294;-81
2023/06/17 06:06:30;;;;;;;34.22;18.80;;;17.10;99.90;;;;;;5092895;28;20189;-81
2023/06/17 06:08:55;;;;;;;30.95;17.67;;;17.10;99.90;;;;;;5090961;28;20561;-80
2023/06/17 06:11:22;;;;;;;28.85;16.83;;;17.20;99.90;;;;;;5096929;28;20185;-81
2023/06/17 06:13:48;;;;;;;25.75;16.45;;;17.20;99.90;;;;;;5080252;28;20554;-82
2023/06/17 06:16:14;;;;;;;27.55;16.67;;;17.30;99.90;;;;;;5085916;28;20311;-80
2023/06/17 06:18:40;;;;;;;25.65;16.40;;;17.30;99.90;;;;;;5084556;28;20625;-80
2023/06/17 06:21:06;;;;;;;24.42;16.77;;;17.30;99.90;;;;;;5097820;28;20642;-80
2023/06/17 06:23:32;;;;;;;31.50;16.92;;;17.30;99.90;;;;;;5096210;28;20189;-80
2023/06/17 06:26:00;;;;;;;27.02;17.08;;;17.30;99.90;;;;;;5095915;28;20177;-80
2023/06/17 06:28:26;;;;;;;26.50;16.35;;;17.30;99.90;;;;;;5093554;28;20228;-85
2023/06/17 06:30:51;;;;;;;24.35;16.25;;;17.40;99.90;;;;;;5094605;28;20192;-82
2023/06/17 06:33:17;;;;;;;29.55;17.45;;;17.40;99.90;;;;;;5096846;28;20311;-80
2023/06/17 06:35:43;;;;;;;26.77;17.38;;;17.40;99.90;;;;;;5090782;28;20650;-79
2023/06/17 06:38:15;;;;;;;35.20;17.73;;;17.50;99.90;;;;;;5083335;28;20229;-81
2023/06/17 06:40:41;;;;;;;29.45;17.50;;;17.50;99.90;;;;;;5094921;28;20280;-78
2023/06/17 06:43:07;;;;;;;28.60;17.85;;;17.60;99.90;;;;;;5094125;28;20211;-78
2023/06/17 06:45:46;;;;;;;26.63;17.17;;;17.60;99.90;;;;;;5095914;28;20296;-79
2023/06/17 06:48:12;;;;;;;32.67;18.17;;;17.70;99.90;;;;;;5093027;27;20186;-80
2023/06/17 06:50:39;;;;;;;27.75;18.45;;;17.70;99.90;;;;;;5085535;28;20559;-79
2023/06/17 06:53:06;;;;;;;27.88;17.27;;;17.80;99.90;;;;;;5075344;28;20237;-80
2023/06/17 06:55:33;;;;;;;30.23;18.55;;;17.80;99.90;;;;;;5084188;28;20191;-77
2023/06/17 06:57:58;;;;;;;27.98;19.20;;;17.90;99.90;;;;;;5093813;28;20272;-77
2023/06/17 07:00:24;;;;;;;28.38;17.85;;;17.90;99.90;;;;;;5084933;28;20223;-84
2023/06/17 07:02:50;;;;;;;30.17;17.77;;;18.00;99.90;;;;;;5093601;28;20280;-79
2023/06/17 07:05:16;;;;;;;32.78;17.33;;;18.10;99.90;;;;;;5097352;28;20401;-79
2023/06/17 07:07:48;;;;;;;25.52;16.50;;;18.10;99.90;;;;;;5067874;28;20178;-81
2023/06/17 07:10:14;;;;;;;31.02;16.45;;;18.20;99.90;;;;;;5092277;28;20286;-80
2023/06/17 07:12:41;;;;;;;26.58;17.17;;;18.30;99.90;;;;;;5096505;27;20573;-78
2023/06/17 07:15:08;;;;;;;26.35;16.60;;;18.30;99.90;;;;;;5098199;27;20220;-79
2023/06/17 07:17:35;;;;;;;27.52;17.27;;;18.40;99.90;;;;;;5100777;27;20177;-79
2023/06/17 07:20:02;;;;;;;24.48;16.48;;;18.40;99.90;;;;;;5105212;27;20186;-79
2023/06/17 07:22:28;;;;;;;26.17;15.98;;;18.50;99.90;;;;;;5099927;27;20221;-81
2023/06/17 07:24:54;;;;;;;22.77;14.70;;;18.60;99.90;;;;;;5093836;28;20229;-80
2023/06/17 07:27:20;;;;;;;29.80;15.82;;;18.70;99.90;;;;;;5098365;28;20182;-79
2023/06/17 07:29:46;;;;;;;28.95;16.10;;;18.80;99.90;;;;;;5096990;28;20217;-79
2023/06/17 07:32:12;;;;;;;24.85;15.68;;;18.80;99.90;;;;;;5076784;27;20734;-79
2023/06/17 07:34:38;;;;;;;24.85;15.07;;;19.00;99.90;;;;;;5083499;27;20213;-78
2023/06/17 07:37:04;;;;;;;25.17;15.73;;;19.00;99.90;;;;;;5082728;28;20285;-84
2023/06/17 07:39:30;;;;;;;21.65;15.18;;;19.10;99.90;;;;;;5079532;28;20220;-80
2023/06/17 07:41:56;;;;;;;26.17;14.63;;;19.20;99.90;;;;;;5096894;27;20705;-80
2023/06/17 07:44:21;;;;;;;25.35;15.60;;;19.20;99.90;;;;;;5100273;27;20189;-81
2023/06/17 07:46:47;;;;;;;23.45;14.82;;;19.30;99.90;;;;;;5105021;27;20182;-79
2023/06/17 07:49:13;;;;;;;26.10;15.35;;;19.40;99.90;;;;;;5098727;28;20591;-82
2023/06/17 07:51:39;;;;;;;28.65;15.23;;;19.40;99.90;;;;;;5093395;28;20186;-79
2023/06/17 07:54:05;;;;;;;28.67;15.05;;;19.50;99.90;;;;;;5075054;28;20210;-79
2023/06/17 07:56:31;;;;;;;21.33;14.50;;;19.60;99.90;;;;;;5075454;28;20238;-77
2023/06/17 07:58:59;;;;;;;24.55;14.63;;;19.70;99.90;;;;;;5095924;28;20189;-77
2023/06/17 08:01:25;;;;;;;22.45;13.40;;;19.80;99.90;;;;;;5084254;27;20736;-77
2023/06/17 08:03:51;;;;;;;19.15;13.32;;;20.00;99.90;;;;;;5104728;27;20193;-79
2023/06/17 08:06:17;;;;;;;21.90;12.70;;;20.10;99.90;;;;;;5093838;28;20320;-77
2023/06/17 08:08:43;;;;;;;23.77;12.30;;;20.20;99.90;;;;;;5099568;27;20663;-80
2023/06/17 08:11:09;;;;;;;21.45;12.85;;;20.30;99.90;;;;;;5080523;28;20185;-81
2023/06/17 08:13:34;;;;;;;20.85;12.75;;;20.40;99.90;;;;;;5099070;27;20571;-78
2023/06/17 08:16:01;;;;;;;28.45;14.10;;;20.50;99.90;;;;;;5106535;28;20251;-79
2023/06/17 08:18:26;;;;;;;20.58;12.75;;;20.60;99.90;;;;;;5089341;28;20647;-82
2023/06/17 08:20:52;;;;;;;20.00;12.20;;;20.60;99.90;;;;;;5094037;28;20208;-78
2023/06/17 08:23:18;;;;;;;17.35;11.02;;;20.70;99.90;;;;;;5090905;27;20191;-78
2023/06/17 08:25:45;;;;;;;22.23;11.82;;;20.80;99.90;;;;;;5095117;28;20204;-79
2023/06/17 08:28:11;;;;;;;18.65;11.45;;;20.90;99.90;;;;;;5083361;28;20591;-79
2023/06/17 08:30:37;;;;;;;19.80;12.05;;;21.00;99.90;;;;;;5093107;28;20204;-80
2023/06/17 08:33:03;;;;;;;21.73;12.45;;;21.20;99.90;;;;;;5106659;28;20258;-81
2023/06/17 08:35:29;;;;;;;20.20;11.88;;;21.30;99.90;;;;;;5077969;27;20399;-79
2023/06/17 08:37:56;;;;;;;18.95;11.48;;;21.40;99.90;;;;;;5096399;27;20236;-81
2023/06/17 08:40:23;;;;;;;21.58;12.10;;;21.50;99.90;;;;;;5095038;27;20228;-78
2023/06/17 08:43:04;;;;;;;19.33;11.55;;;21.70;99.90;;;;;;5103470;27;20189;-78
2023/06/17 08:45:30;;;;;;;19.13;11.13;;;21.80;99.90;;;;;;5107245;28;20224;-79
2023/06/17 08:47:57;;;;;;;22.05;11.07;;;21.90;99.90;;;;;;5097576;27;20661;-79
2023/06/17 08:50:26;;;;;;;17.30;11.52;;;22.00;99.90;;;;;;5099067;27;20630;-78
2023/06/17 08:52:52;;;;;;;15.75;11.23;;;22.10;99.90;;;;;;5104273;28;20212;-79
2023/06/17 08:55:18;;;;;;;21.55;11.55;;;22.20;99.90;;;;;;5095089;28;20170;-78
2023/06/17 08:57:47;;;;;;;22.02;11.15;;;22.20;99.90;;;;;;5101598;27;20205;-78
2023/06/17 09:00:13;;;;;;;18.60;10.48;;;22.30;99.90;;;;;;5092561;27;20217;-80
2023/06/17 09:02:43;;;;;;;20.83;10.75;;;22.30;99.90;;;;;;5095477;28;20185;-79
2023/06/17 09:05:09;;;;;;;21.65;11.60;;;22.40;99.90;;;;;;5104233;28;20196;-79
2023/06/17 09:07:35;;;;;;;19.15;11.52;;;22.60;99.90;;;;;;5092206;28;20489;-79
2023/06/17 09:10:08;;;;;;;18.50;10.88;;;22.70;99.90;;;;;;5091027;28;20235;-79
2023/06/17 09:12:40;;;;;;;16.67;10.00;;;22.60;99.90;;;;;;5098251;28;20184;-80
2023/06/17 09:15:08;;;;;;;18.75;10.50;;;22.70;99.90;;;;;;5094780;28;20589;-79
2023/06/17 09:17:36;;;;;;;20.08;10.70;;;22.80;99.90;;;;;;5112017;28;20165;-78
2023/06/17 09:20:15;;;;;;;18.95;11.20;;;22.90;99.90;;;;;;5107272;28;20190;-79
2023/06/17 09:22:46;;;;;;;16.83;9.50;;;23.00;99.90;;;;;;5091719;28;20520;-79
2023/06/17 09:25:14;;;;;;;19.67;10.38;;;23.00;99.90;;;;;;5073679;28;20262;-78
2023/06/17 09:27:50;;;;;;;19.42;11.48;;;23.20;99.90;;;;;;5091444;28;20176;-78
2023/06/17 09:30:17;;;;;;;22.10;11.50;;;23.30;99.90;;;;;;5095607;28;20189;-78
2023/06/17 09:32:44;;;;;;;16.98;9.60;;;23.30;99.90;;;;;;5109802;28;20230;-79
2023/06/17 09:35:14;;;;;;;21.45;9.90;;;23.40;99.90;;;;;;5100337;28;20567;-79
2023/06/17 09:37:44;;;;;;;21.35;10.80;;;23.50;99.90;;;;;;5100352;28;20225;-80
2023/06/17 09:40:11;;;;;;;17.73;10.80;;;23.60;99.90;;;;;;5100159;28;20204;-79
2023/06/17 09:42:37;;;;;;;15.70;9.85;;;23.70;99.90;;;;;;5092655;27;20577;-79
2023/06/17 09:45:11;;;;;;;18.00;9.52;;;23.60;99.90;;;;;;5089965;28;20182;-79
2023/06/17 09:47:37;;;;;;;20.10;10.20;;;23.80;99.90;;;;;;5090983;28;20265;-79
2023/06/17 09:50:08;;;;;;;17.42;10.38;;;23.90;99.90;;;;;;5094839;28;20189;-78
2023/06/17 09:52:35;;;;;;;14.73;9.65;;;23.90;99.90;;;;;;5089896;28;20160;-77
2023/06/17 09:55:02;;;;;;;15.38;10.05;;;23.90;99.90;;;;;;5090370;28;20186;-78
2023/06/17 09:57:34;;;;;;;17.90;9.98;;;24.10;99.90;;;;;;5089960;28;20766;-79
2023/06/17 10:00:00;;;;;;;18.95;10.10;;;24.10;99.90;;;;;;5091159;28;20166;-78
2023/06/17 10:02:30;;;;;;;22.90;10.63;;;24.20;99.90;;;;;;5090178;28;20618;-78
2023/06/17 10:04:56;;;;;;;15.18;9.57;;;24.30;99.90;;;;;;5107115;28;20295;-78
2023/06/17 10:07:27;;;;;;;19.13;10.48;;;24.30;99.90;;;;;;5110187;28;20274;-80
2023/06/17 10:09:53;;;;;;;16.23;10.25;;;24.50;99.90;;;;;;5094351;28;20181;-79
2023/06/17 10:12:21;;;;;;;15.57;9.95;;;24.50;99.90;;;;;;5091120;28;20174;-79
2023/06/17 10:14:48;;;;;;;17.92;10.18;;;24.60;99.90;;;;;;5089697;28;20692;-79
2023/06/17 10:17:16;;;;;;;15.52;9.32;;;24.60;99.90;;;;;;5106918;28;20188;-78
2023/06/17 10:19:43;;;;;;;16.38;10.25;;;24.70;99.90;;;;;;5101327;28;20626;-79
2023/06/17 10:22:13;;;;;;;16.00;9.43;;;24.80;99.90;;;;;;5094526;28;20182;-79
2023/06/17 10:24:39;;;;;;;19.83;10.43;;;24.90;99.90;;;;;;5090898;28;20178;-79
2023/06/17 10:27:06;;;;;;;19.83;9.70;;;25.00;99.90;;;;;;5089886;28;20234;-77
2023/06/17 10:29:32;;;;;;;15.75;9.90;;;25.10;99.90;;;;;;5093808;28;20297;-79
2023/06/17 10:32:22;;;;;;;34.05;9.82;;;25.10;99.90;;;;;;5092804;28;20188;-79
2023/06/17 10:35:09;;;;;;;18.20;9.63;;;25.20;99.90;;;;;;5086855;28;20205;-78
2023/06/17 10:37:44;;;;;;;21.50;9.48;;;25.40;99.90;;;;;;5103346;28;20229;-78
2023/06/17 10:40:27;;;;;;;17.95;10.68;;;25.50;99.90;;;;;;5089822;28;20613;-79
2023/06/17 10:43:00;;;;;;;16.58;9.82;;;25.60;99.80;;;;;;5093792;28;20200;-78
2023/06/17 10:45:29;;;;;;;13.20;9.07;;;25.70;99.10;;;;;;5092439;28;20261;-79
2023/06/17 10:48:25;;;;;;;20.40;10.07;;;25.80;98.70;;;;;;5093389;28;20185;-78
2023/06/17 10:50:53;;;;;;;15.85;10.02;;;25.80;98.50;;;;;;5096930;28;20546;-78
2023/06/17 10:53:30;;;;;;;17.02;9.93;;;25.80;98.40;;;;;;5098788;28;20205;-78
2023/06/17 10:55:57;;;;;;;18.58;10.20;;;25.80;98.40;;;;;;5111652;28;20628;-78
2023/06/17 10:58:43;;;;;;;16.88;10.20;;;25.90;98.50;;;;;;5113932;28;20341;-77
2023/06/17 11:01:11;;;;;;;21.88;12.43;;;25.90;98.20;;;;;;5110337;27;20299;-78
2023/06/17 11:03:37;;;;;;;17.30;9.60;;;25.90;97.90;;;;;;5104423;27;20235;-79
2023/06/17 11:06:09;;;;;;;17.40;10.02;;;26.00;97.60;;;;;;5113154;28;20183;-78
2023/06/17 11:08:36;;;;;;;16.20;9.75;;;26.10;97.20;;;;;;5095855;28;20178;-80
2023/06/17 11:11:09;;;;;;;17.65;10.43;;;26.10;97.00;;;;;;5110295;28;20181;-81
2023/06/17 11:13:37;;;;;;;16.65;8.88;;;26.10;97.20;;;;;;5112990;28;20213;-79
2023/06/17 11:16:04;;;;;;;12.55;8.38;;;26.30;97.20;;;;;;5114434;28;20218;-79
2023/06/17 11:18:29;;;;;;;18.55;9.02;;;26.30;96.90;;;;;;5111055;28;20185;-78
2023/06/17 11:20:55;;;;;;;15.18;8.73;;;26.40;96.50;;;;;;5112068;28;20181;-78
2023/06/17 11:23:21;;;;;;;15.20;8.38;;;26.40;96.20;;;;;;5098780;27;20617;-77
2023/06/17 11:25:52;;;;;;;18.30;8.80;;;26.40;95.80;;;;;;5095488;28;20532;-77
2023/06/17 11:28:19;;;;;;;12.73;8.05;;;26.50;95.80;;;;;;5095536;28;20180;-78
2023/06/17 11:30:45;;;;;;;14.32;8.00;;;26.50;95.80;;;;;;5107824;28;20545;-79
2023/06/17 11:33:12;;;;;;;14.52;8.43;;;26.50;95.60;;;;;;5088612;28;20223;-77
2023/06/17 11:35:38;;;;;;;14.05;7.70;;;26.60;95.30;;;;;;5098580;28;20220;-78
2023/06/17 11:38:05;;;;;;;16.00;9.23;;;26.60;94.70;;;;;;5095391;27;20229;-79
2023/06/17 11:40:30;;;;;;;14.55;8.32;;;26.60;94.90;;;;;;5097485;27;20181;-77
2023/06/17 11:43:00;;;;;;;17.20;8.98;;;26.60;95.00;;;;;;5114140;28;20528;-79
2023/06/17 11:45:27;;;;;;;17.55;8.15;;;26.70;95.00;;;;;;5093090;28;20178;-78
2023/06/17 11:47:53;;;;;;;14.93;8.18;;;26.70;94.70;;;;;;5094356;28;20558;-79
2023/06/17 11:50:19;;;;;;;14.35;8.52;;;26.80;94.70;;;;;;5060727;28;20205;-77
2023/06/17 11:52:56;;;;;;;13.57;8.10;;;26.90;94.60;;;;;;5099191;28;20174;-77
2023/06/17 11:55:33;;;;;;;13.70;7.88;;;26.80;94.20;;;;;;5093891;28;20606;-77
2023/06/17 11:58:02;;;;;;;21.33;10.50;;;26.90;93.90;;;;;;5092915;28;20181;-76
2023/06/17 12:00:35;;;;;;;12.10;8.40;;;26.90;93.80;;;;;;5095594;27;20285;-77
2023/06/17 12:03:03;;;;;;;14.88;9.10;;;26.90;93.80;;;;;;5103395;28;20208;-77
2023/06/17 12:05:29;;;;;;;14.40;7.82;;;26.90;93.90;;;;;;5106929;28;20586;-77
2023/06/17 12:08:01;;;;;;;11.77;8.07;;;26.90;93.70;;;;;;5092461;28;20275;-78
2023/06/17 12:10:27;;;;;;;14.18;8.40;;;26.90;93.80;;;;;;5092814;28;20238;-77
2023/06/17 12:12:57;;;;;;;14.10;8.32;;;26.90;93.40;;;;;;5082528;28;20572;-77
2023/06/17 12:15:29;;;;;;;13.63;7.45;;;26.90;93.10;;;;;;5103029;27;20203;-85
2023/06/17 12:17:56;;;;;;;18.23;7.80;;;26.80;93.20;;;;;;5099950;28;20268;-77
2023/06/17 12:20:22;;;;;;;14.27;7.60;;;26.80;93.20;;;;;;5095704;28;20185;-78
2023/06/17 12:22:51;;;;;;;15.63;8.10;;;26.90;92.90;;;;;;5111955;28;20175;-78
2023/06/17 12:25:16;;;;;;;15.07;7.95;;;26.90;92.90;;;;;;5112945;28;20263;-79
2023/06/17 12:27:43;;;;;;;17.88;8.50;;;27.00;92.80;;;;;;5112939;28;20272;-78
2023/06/17 12:30:10;;;;;;;16.63;8.07;;;27.10;92.80;;;;;;5111778;28;20551;-78
2023/06/17 12:32:36;;;;;;;14.20;8.05;;;27.10;92.60;;;;;;5085231;28;20268;-78